createdAt,value
2023-05-08T00:00:41.093Z,36.25
2023-05-08T00:03:10.261Z,34.35
2023-05-08T00:05:37.967Z,33.75
2023-05-08T00:08:06.061Z,35.88
2023-05-08T00:10:33.939Z,32.97
2023-05-08T00:13:01.737Z,33.45
2023-05-08T00:15:29.388Z,36.95
2023-05-08T00:17:57.122Z,37.63
2023-05-08T00:20:27.948Z,34.63
2023-05-08T00:22:55.943Z,36.65
2023-05-08T00:25:23.571Z,38.40
2023-05-08T00:27:51.715Z,36.92
2023-05-08T00:30:19.945Z,41.58
2023-05-08T00:32:48.158Z,42.15
2023-05-08T00:35:15.855Z,40.45
2023-05-08T00:37:44.844Z,43.85
2023-05-08T00:40:13.590Z,44.65
2023-05-08T00:42:41.387Z,45.53
2023-05-08T00:45:09.709Z,44.75
2023-05-08T00:47:38.310Z,48.97
2023-05-08T00:50:06.505Z,57.88
2023-05-08T00:52:34.616Z,58.03
2023-05-08T00:55:04.214Z,65.03
2023-05-08T00:57:34.594Z,63.47
2023-05-08T01:00:02.954Z,65.45
2023-05-08T01:02:32.045Z,66.13
2023-05-08T01:04:59.887Z,69.30
2023-05-08T01:07:28.556Z,67.85
2023-05-08T01:09:56.248Z,67.68
2023-05-08T01:12:27.496Z,63.35
2023-05-08T01:15:02.322Z,64.88
2023-05-08T01:17:36.998Z,63.78
2023-05-08T01:20:17.733Z,61.90
2023-05-08T01:22:55.212Z,61.83
2023-05-08T01:25:37.667Z,64.45
2023-05-08T01:28:19.041Z,60.55
2023-05-08T01:31:04.625Z,62.97
2023-05-08T01:33:36.658Z,63.30
2023-05-08T01:36:10.135Z,60.58
2023-05-08T01:38:41.554Z,62.25
2023-05-08T01:41:10.204Z,62.97
2023-05-08T01:43:43.638Z,62.58
2023-05-08T01:46:14.629Z,62.45
2023-05-08T01:48:46.184Z,60.95
2023-05-08T01:51:18.106Z,59.40
2023-05-08T01:53:48.800Z,63.35
2023-05-08T01:56:20.155Z,57.80
2023-05-08T01:58:48.291Z,59.25
2023-05-08T02:01:17.032Z,62.90
2023-05-08T02:03:47.243Z,58.80
2023-05-08T02:06:16.874Z,64.70
2023-05-08T02:08:44.723Z,62.75
2023-05-08T02:11:13.584Z,62.55
2023-05-08T02:13:41.865Z,67.25
2023-05-08T02:16:10.598Z,64.50
2023-05-08T02:18:40.012Z,56.40
2023-05-08T02:21:10.502Z,56.67
2023-05-08T02:23:39.405Z,54.85
2023-05-08T02:26:07.088Z,59.00
2023-05-08T02:28:36.651Z,61.58
2023-05-08T02:31:04.376Z,56.05
2023-05-08T02:33:32.032Z,54.80
2023-05-08T02:36:00.140Z,54.35
2023-05-08T02:38:30.719Z,50.10
2023-05-08T02:40:59.456Z,54.25
2023-05-08T02:43:27.103Z,53.95
2023-05-08T02:46:00.372Z,52.67
2023-05-08T02:48:34.219Z,51.10
2023-05-08T02:51:04.332Z,50.90
2023-05-08T02:53:36.131Z,49.92
2023-05-08T02:56:08.110Z,49.22
2023-05-08T02:58:39.117Z,50.72
2023-05-08T03:01:08.221Z,52.88
2023-05-08T03:03:39.703Z,47.00
2023-05-08T03:06:10.754Z,44.88
2023-05-08T03:08:41.012Z,49.95
2023-05-08T03:11:10.188Z,54.65
2023-05-08T03:13:41.644Z,48.40
2023-05-08T03:16:12.814Z,51.42
2023-05-08T03:18:44.113Z,46.70
2023-05-08T03:21:13.053Z,53.90
2023-05-08T03:23:43.427Z,47.97
2023-05-08T03:26:11.255Z,50.80
2023-05-08T03:28:41.095Z,48.88
2023-05-08T03:31:08.919Z,44.20
2023-05-08T03:33:38.381Z,45.72
2023-05-08T03:36:07.312Z,44.90
2023-05-08T03:38:35.856Z,44.03
2023-05-08T03:41:05.183Z,42.83
2023-05-08T03:43:33.257Z,40.95
2023-05-08T03:46:00.914Z,38.45
2023-05-08T03:48:28.603Z,38.72
2023-05-08T03:50:56.508Z,32.70
2023-05-08T03:53:24.309Z,34.72
2023-05-08T03:56:05.875Z,33.40
2023-05-08T03:58:38.946Z,34.00
2023-05-08T04:01:09.795Z,31.80
2023-05-08T04:03:54.892Z,35.47
2023-05-08T04:06:28.758Z,33.65
2023-05-08T04:09:03.809Z,35.85
2023-05-08T04:11:32.833Z,35.33
2023-05-08T04:14:04.480Z,33.15
2023-05-08T04:16:33.879Z,37.90
2023-05-08T04:19:03.073Z,33.97
2023-05-08T04:21:35.210Z,31.80
2023-05-08T04:24:04.274Z,37.85
2023-05-08T04:26:31.973Z,33.90
2023-05-08T04:28:59.832Z,31.90
2023-05-08T04:31:29.494Z,37.15
2023-05-08T04:33:57.405Z,37.60
2023-05-08T04:36:26.078Z,33.35
2023-05-08T04:38:53.678Z,35.15
2023-05-08T04:41:21.790Z,32.67
2023-05-08T04:43:49.746Z,31.13
2023-05-08T04:46:17.472Z,30.75
2023-05-08T04:48:46.514Z,32.38
2023-05-08T04:51:14.154Z,29.60
2023-05-08T04:53:41.814Z,29.67
2023-05-08T04:56:09.505Z,26.30
2023-05-08T04:58:37.162Z,26.45
2023-05-08T05:01:04.841Z,26.05
2023-05-08T05:03:32.500Z,27.13
2023-05-08T05:06:01.894Z,28.33
2023-05-08T05:08:31.789Z,26.33
2023-05-08T05:11:05.372Z,26.70
2023-05-08T05:13:33.041Z,25.98
2023-05-08T05:16:00.737Z,24.15
2023-05-08T05:18:28.556Z,24.92
2023-05-08T05:20:58.934Z,24.08
2023-05-08T05:23:27.952Z,25.48
2023-05-08T05:25:55.865Z,24.52
2023-05-08T05:28:23.654Z,24.52
2023-05-08T05:30:51.332Z,25.65
2023-05-08T05:33:18.990Z,25.35
2023-05-08T05:35:46.626Z,25.48
2023-05-08T05:38:14.273Z,26.27
2023-05-08T05:40:43.385Z,26.92
2023-05-08T05:43:13.149Z,25.08
2023-05-08T05:45:41.369Z,26.27
2023-05-08T05:48:09.108Z,26.65
2023-05-08T05:50:37.670Z,29.83
2023-05-08T05:53:05.578Z,26.27
2023-05-08T05:55:34.206Z,23.88
2023-05-08T05:58:03.253Z,24.27
2023-05-08T06:00:31.427Z,23.52
2023-05-08T06:02:59.150Z,22.60
2023-05-08T06:05:27.239Z,21.90
2023-05-08T06:07:55.254Z,23.15
2023-05-08T06:10:22.906Z,19.48
2023-05-08T06:12:50.763Z,19.45
2023-05-08T06:15:20.278Z,23.00
2023-05-08T06:17:48.112Z,21.42
2023-05-08T06:20:16.590Z,19.35
2023-05-08T06:22:44.512Z,19.58
2023-05-08T06:25:12.846Z,18.02
2023-05-08T06:27:41.844Z,21.45
2023-05-08T06:30:11.001Z,20.95
2023-05-08T06:32:40.735Z,16.55
2023-05-08T06:35:08.896Z,16.00
2023-05-08T06:37:36.724Z,16.90
2023-05-08T06:40:12.198Z,16.25
2023-05-08T06:42:43.428Z,16.73
2023-05-08T06:45:11.658Z,16.33
2023-05-08T06:47:41.027Z,15.23
2023-05-08T06:50:09.073Z,17.92
2023-05-08T06:52:36.837Z,14.15
2023-05-08T06:55:04.874Z,14.40
2023-05-08T06:57:32.970Z,14.85
2023-05-08T07:00:00.567Z,15.63
2023-05-08T07:02:28.480Z,16.23
2023-05-08T07:04:58.384Z,13.60
2023-05-08T07:07:26.073Z,14.52
2023-05-08T07:09:53.781Z,15.00
2023-05-08T07:12:21.550Z,13.93
2023-05-08T07:14:49.179Z,14.65
2023-05-08T07:17:16.852Z,13.18
2023-05-08T07:19:44.680Z,13.25
2023-05-08T07:22:13.806Z,13.13
2023-05-08T07:24:41.821Z,11.90
2023-05-08T07:27:09.948Z,12.65
2023-05-08T07:29:37.656Z,11.38
2023-05-08T07:32:08.168Z,11.35
2023-05-08T07:34:35.950Z,10.95
2023-05-08T07:37:03.799Z,10.55
2023-05-08T07:39:32.912Z,8.98
2023-05-08T07:42:01.550Z,12.05
2023-05-08T07:44:40.302Z,10.45
2023-05-08T07:47:39.985Z,11.07
2023-05-08T07:50:08.248Z,8.40
2023-05-08T07:52:36.410Z,9.07
2023-05-08T07:55:05.962Z,10.23
2023-05-08T07:57:37.450Z,11.13
2023-05-08T08:00:05.564Z,11.05
2023-05-08T08:02:33.277Z,10.38
2023-05-08T08:05:01.219Z,12.90
2023-05-08T08:07:28.887Z,13.77
2023-05-08T08:09:56.940Z,12.85
2023-05-08T08:12:25.982Z,13.50
2023-05-08T08:14:53.759Z,12.93
2023-05-08T08:17:21.503Z,13.68
2023-05-08T08:19:49.937Z,14.98
2023-05-08T08:22:17.673Z,15.70
2023-05-08T08:24:45.468Z,13.48
2023-05-08T08:27:13.378Z,14.05
2023-05-08T08:29:42.646Z,12.07
2023-05-08T08:32:10.309Z,12.80
2023-05-08T08:34:37.985Z,11.15
2023-05-08T08:37:06.811Z,12.30
2023-05-08T08:39:35.286Z,10.20
2023-05-08T08:42:03.370Z,10.68
2023-05-08T08:44:31.171Z,11.32
2023-05-08T08:47:00.821Z,10.63
2023-05-08T08:49:30.845Z,10.65
2023-05-08T08:52:01.258Z,11.73
2023-05-08T08:54:29.956Z,7.20
2023-05-08T08:56:57.829Z,8.60
2023-05-08T08:59:27.152Z,7.63
2023-05-08T09:01:56.249Z,9.88
2023-05-08T09:04:27.626Z,7.90
2023-05-08T09:06:55.735Z,7.45
2023-05-08T09:09:24.010Z,8.10
2023-05-08T09:11:52.991Z,8.30
2023-05-08T09:14:20.687Z,8.90
2023-05-08T09:16:48.372Z,8.30
2023-05-08T09:19:16.680Z,8.68
2023-05-08T09:21:46.264Z,8.38
2023-05-08T09:24:13.949Z,9.07
2023-05-08T09:26:42.291Z,8.57
2023-05-08T09:29:10.862Z,9.00
2023-05-08T09:31:40.350Z,8.07
2023-05-08T09:34:08.562Z,9.38
2023-05-08T09:36:37.366Z,8.75
2023-05-08T09:39:14.055Z,8.30
2023-05-08T09:41:57.399Z,9.57
2023-05-08T09:44:25.275Z,8.77
2023-05-08T09:46:53.987Z,9.10
2023-05-08T09:49:21.696Z,9.63
2023-05-08T09:51:53.100Z,10.05
2023-05-08T09:54:23.176Z,8.43
2023-05-08T09:56:51.036Z,8.57
2023-05-08T09:59:26.194Z,9.05
2023-05-08T10:04:32.498Z,9.20
2023-05-08T10:07:00.202Z,7.78
2023-05-08T10:09:42.537Z,8.38
2023-05-08T10:12:17.274Z,7.88
2023-05-08T10:14:46.974Z,8.60
2023-05-08T10:17:17.281Z,7.65
2023-05-08T10:19:47.113Z,9.25
2023-05-08T10:22:16.212Z,7.35
2023-05-08T10:24:45.523Z,6.90
2023-05-08T10:27:16.960Z,7.30
2023-05-08T10:29:48.529Z,8.20
2023-05-08T10:32:17.339Z,8.38
2023-05-08T10:34:47.785Z,8.65
2023-05-08T10:37:23.168Z,7.47
2023-05-08T10:39:53.212Z,7.78
2023-05-08T10:42:21.225Z,8.70
2023-05-08T10:44:49.154Z,6.45
2023-05-08T10:47:20.446Z,7.30
2023-05-08T10:49:50.607Z,7.78
2023-05-08T10:52:20.921Z,8.27
2023-05-08T10:55:09.453Z,7.28
2023-05-08T10:57:38.468Z,6.68
2023-05-08T11:00:06.784Z,6.13
2023-05-08T11:02:37.175Z,5.63
2023-05-08T11:05:20.448Z,6.00
2023-05-08T11:07:54.855Z,5.38
2023-05-08T11:10:23.124Z,6.55
2023-05-08T11:12:52.422Z,5.45
2023-05-08T11:15:36.612Z,6.07
2023-05-08T11:18:05.151Z,6.22
2023-05-08T11:20:39.811Z,5.20
2023-05-08T11:23:22.699Z,6.85
2023-05-08T11:26:00.196Z,6.20
2023-05-08T11:28:29.354Z,5.68
2023-05-08T11:30:57.185Z,6.03
2023-05-08T11:33:30.193Z,5.95
2023-05-08T11:35:58.756Z,5.88
2023-05-08T11:38:34.309Z,6.20
2023-05-08T11:41:03.413Z,6.22
2023-05-08T11:43:51.601Z,6.10
2023-05-08T11:46:21.467Z,5.72
2023-05-08T11:48:49.245Z,6.45
2023-05-08T11:51:19.194Z,5.95
2023-05-08T11:53:47.122Z,6.10
2023-05-08T11:56:15.345Z,5.13
2023-05-08T11:58:43.169Z,4.25
2023-05-08T12:01:12.267Z,4.68
2023-05-08T12:03:40.452Z,4.85
2023-05-08T12:06:08.707Z,5.47
2023-05-08T12:08:39.092Z,6.65
2023-05-08T12:11:06.776Z,6.00
2023-05-08T12:13:34.726Z,6.85
2023-05-08T12:16:02.621Z,6.30
2023-05-08T12:18:31.589Z,6.18
2023-05-08T12:21:00.331Z,7.05
2023-05-08T12:23:29.347Z,5.60
2023-05-08T12:26:06.117Z,6.35
2023-05-08T12:28:34.340Z,5.82
2023-05-08T12:31:02.515Z,5.72
2023-05-08T12:33:31.853Z,5.80
2023-05-08T12:35:59.822Z,6.70
2023-05-08T12:38:28.068Z,6.38
2023-05-08T12:40:56.633Z,7.25
2023-05-08T12:43:32.364Z,7.10
2023-05-08T12:46:01.044Z,5.78
2023-05-08T12:48:29.142Z,7.05
2023-05-08T12:51:02.693Z,6.15
2023-05-08T12:53:31.428Z,5.45
2023-05-08T12:56:02.776Z,5.85
2023-05-08T12:58:31.675Z,6.82
2023-05-08T13:01:10.326Z,5.80
2023-05-08T13:03:38.963Z,6.05
2023-05-08T13:06:08.537Z,5.28
2023-05-08T13:08:37.674Z,4.88
2023-05-08T13:11:06.385Z,5.95
2023-05-08T13:13:35.709Z,6.82
2023-05-08T13:16:04.464Z,6.25
2023-05-08T13:18:32.467Z,5.63
2023-05-08T13:21:02.104Z,6.65
2023-05-08T13:23:31.840Z,6.25
2023-05-08T13:26:01.988Z,6.38
2023-05-08T13:28:29.620Z,6.85
2023-05-08T13:30:57.283Z,8.18
2023-05-08T13:33:25.362Z,8.48
2023-05-08T13:35:53.229Z,8.35
2023-05-08T13:38:20.894Z,8.07
2023-05-08T13:40:49.923Z,7.60
2023-05-08T13:43:17.794Z,7.68
2023-05-08T13:45:45.662Z,7.10
2023-05-08T13:48:13.480Z,7.22
2023-05-08T13:50:41.166Z,5.75
2023-05-08T13:53:10.788Z,6.28
2023-05-08T13:55:39.337Z,6.50
2023-05-08T13:58:08.720Z,6.38
2023-05-08T14:00:36.353Z,7.40
2023-05-08T14:03:04.159Z,7.20
2023-05-08T14:05:37.972Z,6.82
2023-05-08T14:08:06.186Z,6.35
2023-05-08T14:10:33.890Z,6.68
2023-05-08T14:13:01.726Z,5.85
2023-05-08T14:15:36.995Z,8.10
2023-05-08T14:18:06.102Z,8.05
2023-05-08T14:20:33.800Z,10.07
2023-05-08T14:23:01.637Z,9.23
2023-05-08T14:25:31.353Z,8.52
2023-05-08T14:27:58.988Z,9.38
2023-05-08T14:30:26.816Z,9.73
2023-05-08T14:32:56.171Z,10.55
2023-05-08T14:35:24.206Z,9.68
2023-05-08T14:37:51.938Z,12.00
2023-05-08T14:40:19.864Z,10.50
2023-05-08T14:42:47.623Z,9.13
2023-05-08T14:45:15.609Z,9.82
2023-05-08T14:47:43.681Z,9.68
2023-05-08T14:50:13.008Z,9.60
2023-05-08T14:52:41.968Z,8.95
2023-05-08T14:55:10.679Z,8.25
2023-05-08T14:57:39.037Z,8.27
2023-05-08T15:00:07.707Z,6.68
2023-05-08T15:02:35.442Z,8.27
2023-05-08T15:05:08.386Z,8.00
2023-05-08T15:07:42.136Z,9.80
2023-05-08T15:10:10.414Z,9.52
2023-05-08T15:12:38.208Z,9.82
2023-05-08T15:15:06.736Z,9.80
2023-05-08T15:17:36.448Z,8.95
2023-05-08T15:20:04.562Z,8.88
2023-05-08T15:22:32.380Z,8.98
2023-05-08T15:25:02.716Z,10.13
2023-05-08T15:27:30.650Z,9.07
2023-05-08T15:29:58.601Z,10.57
2023-05-08T15:32:26.358Z,10.43
2023-05-08T15:34:54.183Z,10.02
2023-05-08T15:37:21.808Z,9.82
2023-05-08T15:39:50.211Z,10.60
2023-05-08T15:42:20.634Z,9.50
2023-05-08T15:47:19.584Z,8.52
2023-05-08T15:49:47.261Z,9.05
2023-05-08T15:52:18.991Z,7.72
2023-05-08T15:54:46.686Z,7.43
2023-05-08T15:57:14.619Z,8.65
2023-05-08T15:59:43.907Z,7.47
2023-05-08T16:02:11.642Z,7.85
2023-05-08T16:04:39.547Z,8.20
2023-05-08T16:07:07.232Z,9.05
2023-05-08T16:09:34.931Z,8.05
2023-05-08T16:12:02.649Z,9.77
2023-05-08T16:14:30.364Z,9.55
2023-05-08T16:16:59.379Z,9.18
2023-05-08T16:19:27.077Z,9.15
2023-05-08T16:21:54.821Z,9.30
2023-05-08T16:24:22.519Z,7.97
2023-05-08T16:26:51.557Z,8.25
2023-05-08T16:29:19.233Z,7.45
2023-05-08T16:31:46.910Z,5.93
2023-05-08T16:34:16.026Z,6.13
2023-05-08T16:36:44.089Z,6.82
2023-05-08T16:39:12.106Z,5.93
2023-05-08T16:41:40.065Z,5.82
2023-05-08T16:44:07.729Z,4.88
2023-05-08T16:46:35.527Z,5.70
2023-05-08T16:49:03.256Z,6.18
2023-05-08T16:51:32.390Z,5.97
2023-05-08T16:54:00.063Z,7.25
2023-05-08T16:56:27.822Z,7.35
2023-05-08T16:58:55.435Z,8.05
2023-05-08T17:01:23.169Z,6.82
2023-05-08T17:03:50.963Z,6.40
2023-05-08T17:06:23.453Z,6.05
2023-05-08T17:08:52.502Z,4.53
2023-05-08T17:11:20.151Z,6.75
2023-05-08T17:13:48.113Z,5.18
2023-05-08T17:16:17.663Z,6.13
2023-05-08T17:18:46.722Z,5.45
2023-05-08T17:21:14.498Z,5.97
2023-05-08T17:23:42.319Z,5.13
2023-05-08T17:26:11.365Z,5.35
2023-05-08T17:28:39.063Z,4.25
2023-05-08T17:31:06.840Z,3.65
2023-05-08T17:33:34.664Z,4.63
2023-05-08T17:36:02.518Z,4.25
2023-05-08T17:38:30.164Z,4.53
2023-05-08T17:40:57.853Z,5.38
2023-05-08T17:43:28.620Z,4.35
2023-05-08T17:45:56.405Z,4.13
2023-05-08T17:48:24.319Z,4.65
2023-05-08T17:50:51.972Z,4.72
2023-05-08T17:53:21.129Z,4.32
2023-05-08T17:55:48.836Z,4.80
2023-05-08T17:58:16.634Z,4.88
2023-05-08T18:00:45.854Z,5.25
2023-05-08T18:03:14.191Z,5.25
2023-05-08T18:05:41.924Z,4.50
2023-05-08T18:08:09.585Z,4.35
2023-05-08T18:10:37.389Z,4.63
2023-05-08T18:13:05.215Z,4.50
2023-05-08T18:15:35.470Z,5.20
2023-05-08T18:18:04.609Z,4.72
2023-05-08T18:20:33.265Z,5.13
2023-05-08T18:23:00.924Z,4.70
2023-05-08T18:25:28.867Z,4.90
2023-05-08T18:27:58.907Z,4.80
2023-05-08T18:30:26.568Z,5.13
2023-05-08T18:32:54.920Z,5.32
2023-05-08T18:35:24.059Z,5.57
2023-05-08T18:37:52.683Z,6.03
2023-05-08T18:40:20.539Z,5.35
2023-05-08T18:42:48.172Z,5.70
2023-05-08T18:45:15.870Z,5.35
2023-05-08T18:47:43.728Z,5.53
2023-05-08T18:50:11.982Z,5.30
2023-05-08T18:52:41.149Z,5.43
2023-05-08T18:55:09.181Z,5.20
2023-05-08T18:57:36.837Z,5.25
2023-05-08T19:00:05.534Z,5.18
2023-05-08T19:02:33.322Z,5.90
2023-05-08T19:05:01.071Z,5.70
2023-05-08T19:07:29.525Z,5.47
2023-05-08T19:09:58.539Z,4.82
2023-05-08T19:12:26.173Z,5.45
2023-05-08T19:14:55.076Z,4.68
2023-05-08T19:17:22.952Z,5.40
2023-05-08T19:19:51.466Z,6.13
2023-05-08T19:22:19.146Z,5.82
2023-05-08T19:24:46.853Z,4.63
2023-05-08T19:27:17.347Z,4.72
2023-05-08T19:29:45.007Z,4.88
2023-05-08T19:32:12.676Z,4.35
2023-05-08T19:34:40.462Z,4.95
2023-05-08T19:37:09.054Z,3.97
2023-05-08T19:39:51.038Z,4.60
2023-05-08T19:42:20.263Z,5.50
2023-05-08T19:44:47.971Z,5.57
2023-05-08T19:47:15.627Z,5.53
2023-05-08T19:49:44.349Z,5.07
2023-05-08T19:52:12.524Z,5.55
2023-05-08T19:54:40.360Z,6.28
2023-05-08T19:57:08.313Z,6.15
2023-05-08T19:59:37.287Z,6.05
2023-05-08T20:02:05.125Z,6.78
2023-05-08T20:04:38.845Z,7.05
2023-05-08T20:07:20.615Z,6.70
2023-05-08T20:09:48.399Z,6.45
2023-05-08T20:12:16.046Z,6.22
2023-05-08T20:14:45.061Z,6.43
2023-05-08T20:17:12.711Z,6.45
2023-05-08T20:19:40.438Z,6.85
2023-05-08T20:22:08.137Z,6.25
2023-05-08T20:24:35.808Z,6.40
2023-05-08T20:27:05.803Z,6.63
2023-05-08T20:29:33.637Z,6.07
2023-05-08T20:32:02.699Z,5.60
2023-05-08T20:34:30.394Z,5.75
2023-05-08T20:37:00.879Z,5.80
2023-05-08T20:39:28.629Z,6.25
2023-05-08T20:41:56.269Z,6.30
2023-05-08T20:44:24.360Z,5.78
2023-05-08T20:46:52.495Z,6.03
2023-05-08T20:49:21.556Z,4.55
2023-05-08T20:51:49.378Z,5.40
2023-05-08T20:54:17.045Z,5.00
2023-05-08T20:56:44.694Z,4.78
2023-05-08T20:59:12.581Z,5.97
2023-05-08T21:01:42.299Z,5.88
2023-05-08T21:04:10.173Z,5.28
2023-05-08T21:06:45.398Z,5.72
2023-05-08T21:11:40.873Z,4.32
2023-05-08T21:14:08.474Z,5.28
2023-05-08T21:16:36.324Z,5.43
2023-05-08T21:19:04.066Z,6.25
2023-05-08T21:21:31.714Z,6.65
2023-05-08T21:24:00.705Z,5.95
2023-05-08T21:26:28.398Z,7.00
2023-05-08T21:28:58.597Z,7.10
2023-05-08T21:31:28.589Z,6.70
2023-05-08T21:33:56.422Z,6.90
2023-05-08T21:36:25.361Z,6.65
2023-05-08T21:38:53.349Z,6.63
2023-05-08T21:41:22.875Z,6.38
2023-05-08T21:43:50.682Z,5.90
2023-05-08T21:46:18.365Z,6.57
2023-05-08T21:48:46.192Z,6.43
2023-05-08T21:51:13.828Z,6.00
2023-05-08T21:53:43.897Z,5.20
2023-05-08T21:56:11.686Z,5.82
2023-05-08T21:58:40.657Z,5.70
2023-05-08T22:01:08.297Z,7.18
2023-05-08T22:03:36.118Z,5.80
2023-05-08T22:06:04.070Z,6.28
2023-05-08T22:08:31.778Z,5.60
2023-05-08T22:11:09.380Z,6.28
2023-05-08T22:13:37.588Z,5.95
2023-05-08T22:16:07.350Z,6.95
2023-05-08T22:18:35.013Z,6.70
2023-05-08T22:21:02.676Z,6.82
2023-05-08T22:23:30.392Z,6.40
2023-05-08T22:25:57.993Z,6.43
2023-05-08T22:28:26.551Z,6.43
2023-05-08T22:30:57.167Z,5.93
2023-05-08T22:33:26.136Z,6.00
2023-05-08T22:35:57.494Z,6.43
2023-05-08T22:38:25.206Z,6.03
2023-05-08T22:40:53.396Z,6.43
2023-05-08T22:43:21.008Z,6.55
2023-05-08T22:45:48.637Z,6.43
2023-05-08T22:48:16.564Z,5.80
2023-05-08T22:50:45.729Z,6.45
2023-05-08T22:53:13.426Z,6.57
2023-05-08T22:55:41.491Z,6.97
2023-05-08T22:58:09.141Z,6.78
2023-05-08T23:00:36.909Z,8.98
2023-05-08T23:03:04.852Z,6.55
2023-05-08T23:05:32.513Z,6.75
2023-05-08T23:08:02.066Z,7.13
2023-05-08T23:10:30.009Z,6.60
2023-05-08T23:12:57.626Z,6.30
2023-05-08T23:15:25.259Z,6.40
2023-05-08T23:17:53.109Z,6.72
2023-05-08T23:20:21.038Z,6.57
2023-05-08T23:22:50.054Z,6.45
2023-05-08T23:25:19.275Z,6.85
2023-05-08T23:27:46.910Z,7.47
2023-05-08T23:30:16.952Z,6.68
2023-05-08T23:32:44.767Z,7.55
2023-05-08T23:35:12.778Z,7.05
2023-05-08T23:37:40.817Z,6.90
2023-05-08T23:40:09.696Z,6.97
2023-05-08T23:42:39.880Z,6.43
2023-05-08T23:45:08.460Z,8.02
2023-05-08T23:47:36.348Z,7.15
2023-05-08T23:50:04.368Z,7.15
2023-05-08T23:52:32.024Z,7.28
2023-05-08T23:54:59.661Z,7.55
2023-05-08T23:57:27.468Z,8.02
2023-05-08T23:59:56.491Z,7.57
